sensor_id;sensor_type;location;lat;lon;timestamp;P1;durP1;ratioP1;P2;durP2;ratioP2
86331;SDS011;76986;40.846;14.254;2024-03-02T00:00:11;18.33;;;11.77;;
86331;SDS011;76986;40.846;14.254;2024-03-02T00:05:07;25.38;;;15.77;;
86331;SDS011;76986;40.846;14.254;2024-03-02T00:07:33;20.52;;;13.52;;
86331;SDS011;76986;40.846;14.254;2024-03-02T00:10:00;18.63;;;14.05;;
86331;SDS011;76986;40.846;14.254;2024-03-02T00:12:26;18.23;;;13.38;;
86331;SDS011;76986;40.846;14.254;2024-03-02T00:14:55;26.83;;;16.60;;
86331;SDS011;76986;40.846;14.254;2024-03-02T00:17:24;21.23;;;13.80;;
86331;SDS011;76986;40.846;14.254;2024-03-02T00:19:51;22.55;;;13.32;;
86331;SDS011;76986;40.846;14.254;2024-03-02T00:22:17;20.05;;;13.13;;
86331;SDS011;76986;40.846;14.254;2024-03-02T00:24:44;22.00;;;14.27;;
86331;SDS011;76986;40.846;14.254;2024-03-02T00:27:10;32.15;;;16.58;;
86331;SDS011;76986;40.846;14.254;2024-03-02T00:29:39;24.23;;;17.45;;
86331;SDS011;76986;40.846;14.254;2024-03-02T00:32:15;27.25;;;18.70;;
86331;SDS011;76986;40.846;14.254;2024-03-02T00:34:42;24.35;;;16.50;;
86331;SDS011;76986;40.846;14.254;2024-03-02T00:37:08;26.17;;;16.35;;
86331;SDS011;76986;40.846;14.254;2024-03-02T00:39:39;20.17;;;13.90;;
86331;SDS011;76986;40.846;14.254;2024-03-02T00:42:05;19.95;;;13.32;;
86331;SDS011;76986;40.846;14.254;2024-03-02T00:44:33;17.35;;;12.50;;
86331;SDS011;76986;40.846;14.254;2024-03-02T00:47:00;16.25;;;12.25;;
86331;SDS011;76986;40.846;14.254;2024-03-02T00:49:27;13.07;;;10.82;;
86331;SDS011;76986;40.846;14.254;2024-03-02T00:51:54;16.67;;;11.10;;
86331;SDS011;76986;40.846;14.254;2024-03-02T00:54:23;17.90;;;11.35;;
86331;SDS011;76986;40.846;14.254;2024-03-02T00:56:51;15.70;;;11.13;;
86331;SDS011;76986;40.846;14.254;2024-03-02T00:59:17;13.98;;;11.27;;
86331;SDS011;76986;40.846;14.254;2024-03-02T01:01:43;18.73;;;11.27;;
86331;SDS011;76986;40.846;14.254;2024-03-02T01:04:09;17.30;;;11.30;;
86331;SDS011;76986;40.846;14.254;2024-03-02T01:06:36;14.18;;;11.18;;
86331;SDS011;76986;40.846;14.254;2024-03-02T01:09:02;14.88;;;9.35;;
86331;SDS011;76986;40.846;14.254;2024-03-02T01:11:28;15.65;;;10.80;;
86331;SDS011;76986;40.846;14.254;2024-03-02T01:13:55;14.32;;;10.43;;
86331;SDS011;76986;40.846;14.254;2024-03-02T01:16:21;13.23;;;11.60;;
86331;SDS011;76986;40.846;14.254;2024-03-02T01:18:47;18.67;;;10.55;;
86331;SDS011;76986;40.846;14.254;2024-03-02T01:21:13;13.38;;;10.38;;
86331;SDS011;76986;40.846;14.254;2024-03-02T01:23:39;15.10;;;11.10;;
86331;SDS011;76986;40.846;14.254;2024-03-02T01:26:05;20.05;;;11.48;;
86331;SDS011;76986;40.846;14.254;2024-03-02T01:28:32;13.25;;;9.93;;
86331;SDS011;76986;40.846;14.254;2024-03-02T01:30:58;15.57;;;10.93;;
86331;SDS011;76986;40.846;14.254;2024-03-02T01:33:24;15.63;;;10.85;;
86331;SDS011;76986;40.846;14.254;2024-03-02T01:35:50;16.52;;;11.23;;
86331;SDS011;76986;40.846;14.254;2024-03-02T01:38:16;15.50;;;11.38;;
86331;SDS011;76986;40.846;14.254;2024-03-02T01:40:42;17.10;;;11.88;;
86331;SDS011;76986;40.846;14.254;2024-03-02T01:43:09;16.25;;;11.10;;
86331;SDS011;76986;40.846;14.254;2024-03-02T01:45:35;16.27;;;11.38;;
86331;SDS011;76986;40.846;14.254;2024-03-02T01:48:02;18.38;;;11.50;;
86331;SDS011;76986;40.846;14.254;2024-03-02T01:50:31;14.25;;;10.68;;
86331;SDS011;76986;40.846;14.254;2024-03-02T01:52:57;14.10;;;10.88;;
86331;SDS011;76986;40.846;14.254;2024-03-02T01:55:23;15.98;;;11.23;;
86331;SDS011;76986;40.846;14.254;2024-03-02T01:57:49;16.58;;;11.27;;
86331;SDS011;76986;40.846;14.254;2024-03-02T02:00:16;18.42;;;10.80;;
86331;SDS011;76986;40.846;14.254;2024-03-02T02:02:43;16.70;;;11.38;;
86331;SDS011;76986;40.846;14.254;2024-03-02T02:05:09;15.02;;;10.40;;
86331;SDS011;76986;40.846;14.254;2024-03-02T02:07:35;16.75;;;11.75;;
86331;SDS011;76986;40.846;14.254;2024-03-02T02:10:01;16.65;;;11.10;;
86331;SDS011;76986;40.846;14.254;2024-03-02T02:12:27;17.27;;;11.52;;
86331;SDS011;76986;40.846;14.254;2024-03-02T02:14:53;15.38;;;11.23;;
86331;SDS011;76986;40.846;14.254;2024-03-02T02:17:19;14.30;;;11.48;;
86331;SDS011;76986;40.846;14.254;2024-03-02T02:19:45;16.55;;;11.70;;
86331;SDS011;76986;40.846;14.254;2024-03-02T02:22:11;13.80;;;11.05;;
86331;SDS011;76986;40.846;14.254;2024-03-02T02:24:41;17.73;;;11.65;;
86331;SDS011;76986;40.846;14.254;2024-03-02T02:27:10;15.82;;;11.40;;
86331;SDS011;76986;40.846;14.254;2024-03-02T02:29:39;16.95;;;13.38;;
86331;SDS011;76986;40.846;14.254;2024-03-02T02:32:05;18.65;;;11.77;;
86331;SDS011;76986;40.846;14.254;2024-03-02T02:34:32;15.98;;;12.02;;
86331;SDS011;76986;40.846;14.254;2024-03-02T02:36:58;17.70;;;12.80;;
86331;SDS011;76986;40.846;14.254;2024-03-02T02:39:24;15.52;;;12.13;;
86331;SDS011;76986;40.846;14.254;2024-03-02T02:41:50;16.08;;;12.20;;
86331;SDS011;76986;40.846;14.254;2024-03-02T02:44:16;20.77;;;14.25;;
86331;SDS011;76986;40.846;14.254;2024-03-02T02:46:42;15.95;;;11.10;;
86331;SDS011;76986;40.846;14.254;2024-03-02T02:49:08;15.73;;;12.18;;
86331;SDS011;76986;40.846;14.254;2024-03-02T02:51:34;16.13;;;12.35;;
86331;SDS011;76986;40.846;14.254;2024-03-02T02:54:00;15.50;;;11.80;;
86331;SDS011;76986;40.846;14.254;2024-03-02T02:56:26;15.48;;;12.50;;
86331;SDS011;76986;40.846;14.254;2024-03-02T02:58:52;16.90;;;12.15;;
86331;SDS011;76986;40.846;14.254;2024-03-02T03:01:18;19.27;;;12.90;;
86331;SDS011;76986;40.846;14.254;2024-03-02T03:03:44;20.65;;;12.95;;
86331;SDS011;76986;40.846;14.254;2024-03-02T03:06:10;15.15;;;11.98;;
86331;SDS011;76986;40.846;14.254;2024-03-02T03:08:36;17.67;;;12.23;;
86331;SDS011;76986;40.846;14.254;2024-03-02T03:11:03;15.93;;;12.35;;
86331;SDS011;76986;40.846;14.254;2024-03-02T03:13:30;17.40;;;12.73;;
86331;SDS011;76986;40.846;14.254;2024-03-02T03:15:56;19.02;;;12.43;;
86331;SDS011;76986;40.846;14.254;2024-03-02T03:18:22;17.42;;;12.70;;
86331;SDS011;76986;40.846;14.254;2024-03-02T03:20:48;15.25;;;11.75;;
86331;SDS011;76986;40.846;14.254;2024-03-02T03:23:15;16.38;;;13.07;;
86331;SDS011;76986;40.846;14.254;2024-03-02T03:25:42;19.92;;;13.27;;
86331;SDS011;76986;40.846;14.254;2024-03-02T03:28:08;19.75;;;12.98;;
86331;SDS011;76986;40.846;14.254;2024-03-02T03:30:37;15.77;;;12.27;;
86331;SDS011;76986;40.846;14.254;2024-03-02T03:33:04;20.30;;;12.10;;
86331;SDS011;76986;40.846;14.254;2024-03-02T03:35:33;15.48;;;11.88;;
86331;SDS011;76986;40.846;14.254;2024-03-02T03:37:59;19.45;;;12.50;;
86331;SDS011;76986;40.846;14.254;2024-03-02T03:40:25;16.23;;;12.00;;
86331;SDS011;76986;40.846;14.254;2024-03-02T03:42:51;14.93;;;11.73;;
86331;SDS011;76986;40.846;14.254;2024-03-02T03:45:18;18.55;;;12.88;;
86331;SDS011;76986;40.846;14.254;2024-03-02T03:47:45;17.58;;;12.75;;
86331;SDS011;76986;40.846;14.254;2024-03-02T03:50:11;14.52;;;10.90;;
86331;SDS011;76986;40.846;14.254;2024-03-02T03:52:37;16.08;;;12.10;;
86331;SDS011;76986;40.846;14.254;2024-03-02T03:55:03;19.55;;;12.90;;
86331;SDS011;76986;40.846;14.254;2024-03-02T03:57:30;16.25;;;12.35;;
86331;SDS011;76986;40.846;14.254;2024-03-02T03:59:56;18.48;;;12.15;;
86331;SDS011;76986;40.846;14.254;2024-03-02T04:02:22;15.27;;;11.73;;
86331;SDS011;76986;40.846;14.254;2024-03-02T04:04:49;17.13;;;11.63;;
86331;SDS011;76986;40.846;14.254;2024-03-02T04:07:15;18.08;;;11.57;;
86331;SDS011;76986;40.846;14.254;2024-03-02T04:09:41;14.52;;;11.90;;
86331;SDS011;76986;40.846;14.254;2024-03-02T04:12:07;16.88;;;11.35;;
86331;SDS011;76986;40.846;14.254;2024-03-02T04:14:33;14.10;;;10.65;;
86331;SDS011;76986;40.846;14.254;2024-03-02T04:16:59;17.35;;;12.15;;
86331;SDS011;76986;40.846;14.254;2024-03-02T04:19:26;15.27;;;10.57;;
86331;SDS011;76986;40.846;14.254;2024-03-02T04:21:52;13.35;;;10.05;;
86331;SDS011;76986;40.846;14.254;2024-03-02T04:24:18;13.48;;;10.23;;
86331;SDS011;76986;40.846;14.254;2024-03-02T04:26:49;11.63;;;10.13;;
86331;SDS011;76986;40.846;14.254;2024-03-02T04:29:24;13.70;;;9.80;;
86331;SDS011;76986;40.846;14.254;2024-03-02T04:31:50;11.43;;;9.65;;
86331;SDS011;76986;40.846;14.254;2024-03-02T04:34:16;15.63;;;10.40;;
86331;SDS011;76986;40.846;14.254;2024-03-02T04:36:42;14.13;;;10.52;;
86331;SDS011;76986;40.846;14.254;2024-03-02T04:39:08;12.02;;;10.15;;
86331;SDS011;76986;40.846;14.254;2024-03-02T04:41:37;12.80;;;9.40;;
86331;SDS011;76986;40.846;14.254;2024-03-02T04:44:04;11.40;;;8.57;;
86331;SDS011;76986;40.846;14.254;2024-03-02T04:46:31;12.80;;;9.73;;
86331;SDS011;76986;40.846;14.254;2024-03-02T04:48:57;14.68;;;10.48;;
86331;SDS011;76986;40.846;14.254;2024-03-02T04:51:23;14.15;;;9.93;;
86331;SDS011;76986;40.846;14.254;2024-03-02T04:53:49;11.05;;;8.50;;
86331;SDS011;76986;40.846;14.254;2024-03-02T04:56:15;12.80;;;8.88;;
86331;SDS011;76986;40.846;14.254;2024-03-02T04:59:06;14.50;;;10.48;;
86331;SDS011;76986;40.846;14.254;2024-03-02T05:01:32;14.95;;;9.18;;
86331;SDS011;76986;40.846;14.254;2024-03-02T05:03:58;13.82;;;8.45;;
86331;SDS011;76986;40.846;14.254;2024-03-02T05:06:24;15.48;;;9.48;;
86331;SDS011;76986;40.846;14.254;2024-03-02T05:08:50;15.88;;;9.98;;
86331;SDS011;76986;40.846;14.254;2024-03-02T05:11:16;14.88;;;9.68;;
86331;SDS011;76986;40.846;14.254;2024-03-02T05:14:11;14.70;;;11.27;;
86331;SDS011;76986;40.846;14.254;2024-03-02T05:16:38;11.40;;;8.68;;
86331;SDS011;76986;40.846;14.254;2024-03-02T05:19:05;14.35;;;9.80;;
86331;SDS011;76986;40.846;14.254;2024-03-02T05:21:34;14.98;;;10.48;;
86331;SDS011;76986;40.846;14.254;2024-03-02T05:24:00;13.15;;;10.90;;
86331;SDS011;76986;40.846;14.254;2024-03-02T05:26:26;12.20;;;9.07;;
86331;SDS011;76986;40.846;14.254;2024-03-02T05:28:52;12.38;;;8.57;;
86331;SDS011;76986;40.846;14.254;2024-03-02T05:31:18;15.10;;;9.20;;
86331;SDS011;76986;40.846;14.254;2024-03-02T05:33:44;15.13;;;10.30;;
86331;SDS011;76986;40.846;14.254;2024-03-02T05:36:10;13.30;;;10.23;;
86331;SDS011;76986;40.846;14.254;2024-03-02T05:38:36;15.63;;;10.90;;
86331;SDS011;76986;40.846;14.254;2024-03-02T05:41:03;15.15;;;10.48;;
86331;SDS011;76986;40.846;14.254;2024-03-02T05:43:29;15.32;;;10.18;;
86331;SDS011;76986;40.846;14.254;2024-03-02T05:45:55;16.42;;;11.68;;
86331;SDS011;76986;40.846;14.254;2024-03-02T05:48:21;17.80;;;10.93;;
86331;SDS011;76986;40.846;14.254;2024-03-02T05:50:47;13.23;;;11.00;;
86331;SDS011;76986;40.846;14.254;2024-03-02T05:53:13;14.40;;;10.73;;
86331;SDS011;76986;40.846;14.254;2024-03-02T05:55:40;14.57;;;11.10;;
86331;SDS011;76986;40.846;14.254;2024-03-02T05:58:06;14.27;;;10.75;;
86331;SDS011;76986;40.846;14.254;2024-03-02T06:01:02;13.50;;;10.32;;
86331;SDS011;76986;40.846;14.254;2024-03-02T06:03:29;17.58;;;11.15;;
86331;SDS011;76986;40.846;14.254;2024-03-02T06:05:55;12.73;;;10.65;;
86331;SDS011;76986;40.846;14.254;2024-03-02T06:08:21;14.70;;;10.02;;
86331;SDS011;76986;40.846;14.254;2024-03-02T06:10:47;15.73;;;9.95;;
86331;SDS011;76986;40.846;14.254;2024-03-02T06:13:13;12.95;;;10.75;;
86331;SDS011;76986;40.846;14.254;2024-03-02T06:15:40;15.65;;;11.07;;
86331;SDS011;76986;40.846;14.254;2024-03-02T06:18:06;17.95;;;11.95;;
86331;SDS011;76986;40.846;14.254;2024-03-02T06:20:33;15.27;;;10.45;;
86331;SDS011;76986;40.846;14.254;2024-03-02T06:22:59;13.70;;;9.82;;
86331;SDS011;76986;40.846;14.254;2024-03-02T06:25:25;14.60;;;10.95;;
86331;SDS011;76986;40.846;14.254;2024-03-02T06:27:51;20.58;;;13.30;;
86331;SDS011;76986;40.846;14.254;2024-03-02T06:30:17;16.83;;;10.85;;
86331;SDS011;76986;40.846;14.254;2024-03-02T06:32:43;22.70;;;12.27;;
86331;SDS011;76986;40.846;14.254;2024-03-02T06:35:09;19.00;;;12.63;;
86331;SDS011;76986;40.846;14.254;2024-03-02T06:37:38;18.55;;;12.63;;
86331;SDS011;76986;40.846;14.254;2024-03-02T06:40:05;17.13;;;12.23;;
86331;SDS011;76986;40.846;14.254;2024-03-02T06:42:33;16.42;;;12.32;;
86331;SDS011;76986;40.846;14.254;2024-03-02T06:44:59;31.70;;;14.70;;
86331;SDS011;76986;40.846;14.254;2024-03-02T06:47:25;17.50;;;13.38;;
86331;SDS011;76986;40.846;14.254;2024-03-02T06:49:51;20.75;;;13.05;;
86331;SDS011;76986;40.846;14.254;2024-03-02T06:52:18;21.92;;;15.73;;
86331;SDS011;76986;40.846;14.254;2024-03-02T06:54:45;23.95;;;18.48;;
86331;SDS011;76986;40.846;14.254;2024-03-02T06:57:11;21.02;;;16.35;;
86331;SDS011;76986;40.846;14.254;2024-03-02T06:59:37;21.52;;;15.02;;
86331;SDS011;76986;40.846;14.254;2024-03-02T07:02:03;21.58;;;16.65;;
86331;SDS011;76986;40.846;14.254;2024-03-02T07:04:29;20.27;;;15.38;;
86331;SDS011;76986;40.846;14.254;2024-03-02T07:06:55;20.92;;;13.77;;
86331;SDS011;76986;40.846;14.254;2024-03-02T07:09:21;20.83;;;13.30;;
86331;SDS011;76986;40.846;14.254;2024-03-02T07:11:48;21.52;;;15.32;;
86331;SDS011;76986;40.846;14.254;2024-03-02T07:14:14;17.98;;;12.43;;
86331;SDS011;76986;40.846;14.254;2024-03-02T07:16:40;13.88;;;10.88;;
86331;SDS011;76986;40.846;14.254;2024-03-02T07:19:08;20.17;;;11.52;;
86331;SDS011;76986;40.846;14.254;2024-03-02T07:21:34;16.60;;;12.00;;
86331;SDS011;76986;40.846;14.254;2024-03-02T07:24:01;17.02;;;12.43;;
86331;SDS011;76986;40.846;14.254;2024-03-02T07:26:30;17.58;;;13.52;;
86331;SDS011;76986;40.846;14.254;2024-03-02T07:28:56;18.63;;;13.75;;
86331;SDS011;76986;40.846;14.254;2024-03-02T07:31:22;21.38;;;15.40;;
86331;SDS011;76986;40.846;14.254;2024-03-02T07:33:48;18.67;;;12.93;;
86331;SDS011;76986;40.846;14.254;2024-03-02T07:36:14;20.08;;;13.75;;
86331;SDS011;76986;40.846;14.254;2024-03-02T07:38:41;22.45;;;14.90;;
86331;SDS011;76986;40.846;14.254;2024-03-02T07:41:07;24.20;;;15.35;;
86331;SDS011;76986;40.846;14.254;2024-03-02T07:43:33;18.35;;;14.55;;
86331;SDS011;76986;40.846;14.254;2024-03-02T07:46:00;20.15;;;16.20;;
86331;SDS011;76986;40.846;14.254;2024-03-02T07:50:54;22.88;;;17.48;;
86331;SDS011;76986;40.846;14.254;2024-03-02T07:53:20;22.92;;;17.88;;
86331;SDS011;76986;40.846;14.254;2024-03-02T07:55:46;23.00;;;16.38;;
86331;SDS011;76986;40.846;14.254;2024-03-02T07:58:12;21.48;;;16.15;;
86331;SDS011;76986;40.846;14.254;2024-03-02T08:00:38;22.35;;;17.70;;
86331;SDS011;76986;40.846;14.254;2024-03-02T08:03:05;24.00;;;16.45;;
86331;SDS011;76986;40.846;14.254;2024-03-02T08:05:31;21.42;;;17.17;;
86331;SDS011;76986;40.846;14.254;2024-03-02T08:07:57;19.63;;;17.58;;
86331;SDS011;76986;40.846;14.254;2024-03-02T08:10:23;29.35;;;21.58;;
86331;SDS011;76986;40.846;14.254;2024-03-02T08:12:49;23.75;;;17.70;;
86331;SDS011;76986;40.846;14.254;2024-03-02T08:15:15;23.98;;;17.23;;
86331;SDS011;76986;40.846;14.254;2024-03-02T08:17:41;23.13;;;17.25;;
86331;SDS011;76986;40.846;14.254;2024-03-02T08:20:13;23.08;;;18.02;;
86331;SDS011;76986;40.846;14.254;2024-03-02T08:22:39;28.13;;;20.33;;
86331;SDS011;76986;40.846;14.254;2024-03-02T08:25:06;24.77;;;17.75;;
86331;SDS011;76986;40.846;14.254;2024-03-02T08:27:32;24.23;;;17.05;;
86331;SDS011;76986;40.846;14.254;2024-03-02T08:29:59;21.98;;;16.83;;
86331;SDS011;76986;40.846;14.254;2024-03-02T08:32:25;23.77;;;16.77;;
86331;SDS011;76986;40.846;14.254;2024-03-02T08:34:51;35.58;;;26.88;;
86331;SDS011;76986;40.846;14.254;2024-03-02T08:37:17;24.77;;;17.02;;
86331;SDS011;76986;40.846;14.254;2024-03-02T08:39:44;60.25;;;42.33;;
86331;SDS011;76986;40.846;14.254;2024-03-02T08:42:10;31.35;;;20.63;;
86331;SDS011;76986;40.846;14.254;2024-03-02T08:44:36;27.63;;;17.73;;
86331;SDS011;76986;40.846;14.254;2024-03-02T08:47:03;24.42;;;17.55;;
86331;SDS011;76986;40.846;14.254;2024-03-02T08:49:29;25.00;;;15.85;;
86331;SDS011;76986;40.846;14.254;2024-03-02T08:51:55;18.23;;;14.20;;
86331;SDS011;76986;40.846;14.254;2024-03-02T08:54:21;18.88;;;14.27;;
86331;SDS011;76986;40.846;14.254;2024-03-02T08:56:48;15.10;;;9.60;;
86331;SDS011;76986;40.846;14.254;2024-03-02T08:59:14;7.13;;;4.90;;
86331;SDS011;76986;40.846;14.254;2024-03-02T09:01:40;6.43;;;3.53;;
86331;SDS011;76986;40.846;14.254;2024-03-02T09:04:07;2.92;;;1.60;;
86331;SDS011;76986;40.846;14.254;2024-03-02T09:06:35;4.05;;;2.15;;
86331;SDS011;76986;40.846;14.254;2024-03-02T09:09:02;2.05;;;1.85;;
86331;SDS011;76986;40.846;14.254;2024-03-02T09:11:28;4.55;;;2.47;;
86331;SDS011;76986;40.846;14.254;2024-03-02T09:13:54;4.35;;;1.92;;
86331;SDS011;76986;40.846;14.254;2024-03-02T09:16:21;6.18;;;2.10;;
86331;SDS011;76986;40.846;14.254;2024-03-02T09:18:47;4.65;;;3.20;;
86331;SDS011;76986;40.846;14.254;2024-03-02T09:21:13;5.60;;;2.72;;
86331;SDS011;76986;40.846;14.254;2024-03-02T09:23:40;6.82;;;2.58;;
86331;SDS011;76986;40.846;14.254;2024-03-02T09:26:06;9.77;;;2.33;;
86331;SDS011;76986;40.846;14.254;2024-03-02T09:28:32;6.20;;;2.63;;
86331;SDS011;76986;40.846;14.254;2024-03-02T09:31:00;3.70;;;1.98;;
86331;SDS011;76986;40.846;14.254;2024-03-02T09:33:26;7.07;;;2.03;;
86331;SDS011;76986;40.846;14.254;2024-03-02T09:35:52;5.43;;;2.20;;
86331;SDS011;76986;40.846;14.254;2024-03-02T09:38:19;5.68;;;2.47;;
86331;SDS011;76986;40.846;14.254;2024-03-02T09:40:45;2.42;;;1.80;;
86331;SDS011;76986;40.846;14.254;2024-03-02T09:43:11;5.65;;;2.40;;
86331;SDS011;76986;40.846;14.254;2024-03-02T09:45:38;4.07;;;2.35;;
86331;SDS011;76986;40.846;14.254;2024-03-02T09:48:06;6.22;;;2.85;;
86331;SDS011;76986;40.846;14.254;2024-03-02T09:50:32;3.42;;;2.33;;
86331;SDS011;76986;40.846;14.254;2024-03-02T09:52:58;6.45;;;4.15;;
86331;SDS011;76986;40.846;14.254;2024-03-02T09:55:24;7.22;;;3.10;;
86331;SDS011;76986;40.846;14.254;2024-03-02T09:57:51;5.18;;;2.60;;
86331;SDS011;76986;40.846;14.254;2024-03-02T10:00:17;6.30;;;3.60;;
86331;SDS011;76986;40.846;14.254;2024-03-02T10:02:43;3.35;;;2.60;;
86331;SDS011;76986;40.846;14.254;2024-03-02T10:05:11;2.47;;;1.58;;
86331;SDS011;76986;40.846;14.254;2024-03-02T10:07:37;4.50;;;1.73;;
86331;SDS011;76986;40.846;14.254;2024-03-02T10:10:12;7.28;;;2.40;;
86331;SDS011;76986;40.846;14.254;2024-03-02T10:12:39;5.40;;;1.90;;
86331;SDS011;76986;40.846;14.254;2024-03-02T10:15:05;4.35;;;2.42;;
86331;SDS011;76986;40.846;14.254;2024-03-02T10:17:31;7.70;;;2.28;;
86331;SDS011;76986;40.846;14.254;2024-03-02T10:19:57;4.43;;;1.95;;
86331;SDS011;76986;40.846;14.254;2024-03-02T10:22:23;10.50;;;2.53;;
86331;SDS011;76986;40.846;14.254;2024-03-02T10:24:50;7.18;;;2.85;;
86331;SDS011;76986;40.846;14.254;2024-03-02T10:27:17;4.85;;;2.40;;
86331;SDS011;76986;40.846;14.254;2024-03-02T10:29:46;5.18;;;1.98;;
86331;SDS011;76986;40.846;14.254;2024-03-02T10:32:13;4.88;;;2.90;;
86331;SDS011;76986;40.846;14.254;2024-03-02T10:34:39;6.15;;;2.15;;
86331;SDS011;76986;40.846;14.254;2024-03-02T10:37:05;5.38;;;2.60;;
86331;SDS011;76986;40.846;14.254;2024-03-02T10:39:32;7.63;;;4.60;;
86331;SDS011;76986;40.846;14.254;2024-03-02T10:42:00;6.30;;;3.58;;
86331;SDS011;76986;40.846;14.254;2024-03-02T10:44:28;6.60;;;3.15;;
86331;SDS011;76986;40.846;14.254;2024-03-02T10:46:54;8.38;;;4.68;;
86331;SDS011;76986;40.846;14.254;2024-03-02T10:49:21;8.05;;;3.15;;
86331;SDS011;76986;40.846;14.254;2024-03-02T10:51:49;8.00;;;3.33;;
86331;SDS011;76986;40.846;14.254;2024-03-02T10:54:15;5.88;;;2.17;;
86331;SDS011;76986;40.846;14.254;2024-03-02T10:56:43;5.28;;;1.83;;
86331;SDS011;76986;40.846;14.254;2024-03-02T11:01:36;5.70;;;2.63;;
86331;SDS011;76986;40.846;14.254;2024-03-02T11:04:04;6.20;;;2.28;;
86331;SDS011;76986;40.846;14.254;2024-03-02T11:06:33;4.53;;;2.75;;
86331;SDS011;76986;40.846;14.254;2024-03-02T11:09:03;3.70;;;2.58;;
86331;SDS011;76986;40.846;14.254;2024-03-02T11:11:33;6.20;;;2.88;;
86331;SDS011;76986;40.846;14.254;2024-03-02T11:14:01;4.63;;;2.70;;
86331;SDS011;76986;40.846;14.254;2024-03-02T11:16:36;7.03;;;3.33;;
86331;SDS011;76986;40.846;14.254;2024-03-02T11:19:07;10.23;;;3.90;;
86331;SDS011;76986;40.846;14.254;2024-03-02T11:21:34;9.60;;;2.85;;
86331;SDS011;76986;40.846;14.254;2024-03-02T11:24:19;8.63;;;3.55;;
86331;SDS011;76986;40.846;14.254;2024-03-02T11:26:47;7.57;;;2.53;;
86331;SDS011;76986;40.846;14.254;2024-03-02T11:32:01;7.40;;;2.72;;
86331;SDS011;76986;40.846;14.254;2024-03-02T11:34:31;6.40;;;2.40;;
86331;SDS011;76986;40.846;14.254;2024-03-02T11:36:57;4.70;;;2.15;;
86331;SDS011;76986;40.846;14.254;2024-03-02T11:39:29;8.52;;;2.28;;
86331;SDS011;76986;40.846;14.254;2024-03-02T11:41:56;7.53;;;2.90;;
86331;SDS011;76986;40.846;14.254;2024-03-02T11:44:22;7.50;;;2.40;;
86331;SDS011;76986;40.846;14.254;2024-03-02T11:49:16;10.35;;;1.92;;
86331;SDS011;76986;40.846;14.254;2024-03-02T11:52:00;5.80;;;2.42;;
86331;SDS011;76986;40.846;14.254;2024-03-02T11:54:27;6.28;;;2.65;;
86331;SDS011;76986;40.846;14.254;2024-03-02T11:56:55;9.80;;;2.40;;
86331;SDS011;76986;40.846;14.254;2024-03-02T11:59:22;6.07;;;2.42;;
86331;SDS011;76986;40.846;14.254;2024-03-02T12:01:48;9.88;;;2.50;;
86331;SDS011;76986;40.846;14.254;2024-03-02T12:04:15;7.07;;;2.45;;
86331;SDS011;76986;40.846;14.254;2024-03-02T12:06:41;9.00;;;3.95;;
86331;SDS011;76986;40.846;14.254;2024-03-02T12:09:09;10.85;;;2.80;;
86331;SDS011;76986;40.846;14.254;2024-03-02T12:11:39;15.15;;;3.17;;
86331;SDS011;76986;40.846;14.254;2024-03-02T12:14:10;11.57;;;2.28;;
86331;SDS011;76986;40.846;14.254;2024-03-02T12:16:37;12.07;;;3.88;;
86331;SDS011;76986;40.846;14.254;2024-03-02T12:19:05;17.77;;;3.22;;
86331;SDS011;76986;40.846;14.254;2024-03-02T12:21:31;10.73;;;2.67;;
86331;SDS011;76986;40.846;14.254;2024-03-02T12:23:57;6.35;;;2.45;;
86331;SDS011;76986;40.846;14.254;2024-03-02T12:26:23;13.02;;;3.22;;
86331;SDS011;76986;40.846;14.254;2024-03-02T12:28:49;11.52;;;2.53;;
86331;SDS011;76986;40.846;14.254;2024-03-02T12:31:16;13.02;;;3.70;;
86331;SDS011;76986;40.846;14.254;2024-03-02T12:33:42;10.23;;;3.78;;
86331;SDS011;76986;40.846;14.254;2024-03-02T12:36:09;9.73;;;2.10;;
86331;SDS011;76986;40.846;14.254;2024-03-02T12:38:37;16.80;;;3.15;;
86331;SDS011;76986;40.846;14.254;2024-03-02T12:41:03;13.75;;;3.08;;
86331;SDS011;76986;40.846;14.254;2024-03-02T12:43:30;7.85;;;2.78;;
86331;SDS011;76986;40.846;14.254;2024-03-02T12:45:57;6.55;;;2.03;;
86331;SDS011;76986;40.846;14.254;2024-03-02T12:48:24;10.15;;;2.90;;
86331;SDS011;76986;40.846;14.254;2024-03-02T12:50:50;10.30;;;2.72;;
86331;SDS011;76986;40.846;14.254;2024-03-02T12:53:16;17.38;;;3.45;;
86331;SDS011;76986;40.846;14.254;2024-03-02T12:55:42;13.88;;;3.67;;
86331;SDS011;76986;40.846;14.254;2024-03-02T12:58:18;6.70;;;2.05;;
86331;SDS011;76986;40.846;14.254;2024-03-02T13:00:46;16.92;;;3.90;;
86331;SDS011;76986;40.846;14.254;2024-03-02T13:03:12;25.45;;;2.90;;
86331;SDS011;76986;40.846;14.254;2024-03-02T13:05:39;18.50;;;2.92;;
86331;SDS011;76986;40.846;14.254;2024-03-02T13:08:05;14.38;;;2.42;;
86331;SDS011;76986;40.846;14.254;2024-03-02T13:10:32;15.07;;;3.42;;
86331;SDS011;76986;40.846;14.254;2024-03-02T13:12:58;8.35;;;1.80;;
86331;SDS011;76986;40.846;14.254;2024-03-02T13:15:27;9.00;;;2.30;;
86331;SDS011;76986;40.846;14.254;2024-03-02T13:17:53;12.48;;;2.75;;
86331;SDS011;76986;40.846;14.254;2024-03-02T13:20:19;9.30;;;2.17;;
86331;SDS011;76986;40.846;14.254;2024-03-02T13:22:45;16.13;;;3.22;;
86331;SDS011;76986;40.846;14.254;2024-03-02T13:25:11;19.02;;;3.45;;
86331;SDS011;76986;40.846;14.254;2024-03-02T13:27:38;18.77;;;4.15;;
86331;SDS011;76986;40.846;14.254;2024-03-02T13:30:05;12.73;;;2.92;;
86331;SDS011;76986;40.846;14.254;2024-03-02T13:32:31;12.57;;;4.07;;
86331;SDS011;76986;40.846;14.254;2024-03-02T13:34:57;8.25;;;2.45;;
86331;SDS011;76986;40.846;14.254;2024-03-02T13:37:23;15.77;;;3.60;;
86331;SDS011;76986;40.846;14.254;2024-03-02T13:39:49;8.73;;;2.55;;
86331;SDS011;76986;40.846;14.254;2024-03-02T13:42:15;17.77;;;3.03;;
86331;SDS011;76986;40.846;14.254;2024-03-02T13:44:44;13.82;;;3.55;;
86331;SDS011;76986;40.846;14.254;2024-03-02T13:47:12;11.98;;;3.75;;
86331;SDS011;76986;40.846;14.254;2024-03-02T13:49:38;49.70;;;29.70;;
86331;SDS011;76986;40.846;14.254;2024-03-02T13:52:08;14.02;;;2.80;;
86331;SDS011;76986;40.846;14.254;2024-03-02T13:54:44;16.95;;;2.83;;
86331;SDS011;76986;40.846;14.254;2024-03-02T13:57:11;12.30;;;3.42;;
86331;SDS011;76986;40.846;14.254;2024-03-02T13:59:37;9.00;;;3.35;;
86331;SDS011;76986;40.846;14.254;2024-03-02T14:02:06;11.32;;;2.40;;
86331;SDS011;76986;40.846;14.254;2024-03-02T14:04:33;7.75;;;2.50;;
86331;SDS011;76986;40.846;14.254;2024-03-02T14:07:00;10.35;;;2.72;;
86331;SDS011;76986;40.846;14.254;2024-03-02T14:09:26;8.35;;;2.67;;
86331;SDS011;76986;40.846;14.254;2024-03-02T14:11:53;11.10;;;2.72;;
86331;SDS011;76986;40.846;14.254;2024-03-02T14:14:19;11.88;;;2.13;;
86331;SDS011;76986;40.846;14.254;2024-03-02T14:16:45;11.00;;;3.33;;
86331;SDS011;76986;40.846;14.254;2024-03-02T14:19:11;18.02;;;3.50;;
86331;SDS011;76986;40.846;14.254;2024-03-02T14:21:38;9.95;;;2.58;;
86331;SDS011;76986;40.846;14.254;2024-03-02T14:24:04;9.02;;;2.17;;
86331;SDS011;76986;40.846;14.254;2024-03-02T14:26:32;7.55;;;2.25;;
86331;SDS011;76986;40.846;14.254;2024-03-02T14:28:58;10.23;;;2.15;;